sensor_id;sensor_type;location;lat;lon;timestamp;temperature;humidity
11426;DHT22;5769;47.998;7.788;2023-10-31T00:01:48;21.10;66.60
11426;DHT22;5769;47.998;7.788;2023-10-31T00:04:16;21.10;66.60
11426;DHT22;5769;47.998;7.788;2023-10-31T00:06:43;21.10;66.50
11426;DHT22;5769;47.998;7.788;2023-10-31T00:09:11;21.10;66.50
11426;DHT22;5769;47.998;7.788;2023-10-31T00:11:37;21.10;66.60
11426;DHT22;5769;47.998;7.788;2023-10-31T00:14:04;21.10;66.50
11426;DHT22;5769;47.998;7.788;2023-10-31T00:16:31;21.10;66.50
11426;DHT22;5769;47.998;7.788;2023-10-31T00:18:58;21.10;66.60
11426;DHT22;5769;47.998;7.788;2023-10-31T00:21:26;21.10;66.50
11426;DHT22;5769;47.998;7.788;2023-10-31T00:23:52;21.10;66.60
11426;DHT22;5769;47.998;7.788;2023-10-31T00:26:19;21.10;66.60
11426;DHT22;5769;47.998;7.788;2023-10-31T00:28:46;21.10;66.60
11426;DHT22;5769;47.998;7.788;2023-10-31T00:31:12;21.10;66.60
11426;DHT22;5769;47.998;7.788;2023-10-31T00:33:39;21.10;66.50
11426;DHT22;5769;47.998;7.788;2023-10-31T00:36:07;21.10;66.50
11426;DHT22;5769;47.998;7.788;2023-10-31T00:38:35;21.10;66.60
11426;DHT22;5769;47.998;7.788;2023-10-31T00:41:02;21.10;66.60
11426;DHT22;5769;47.998;7.788;2023-10-31T00:43:29;21.10;66.50
11426;DHT22;5769;47.998;7.788;2023-10-31T00:45:55;21.10;66.60
11426;DHT22;5769;47.998;7.788;2023-10-31T00:48:22;21.10;66.50
11426;DHT22;5769;47.998;7.788;2023-10-31T00:50:49;21.00;66.50
11426;DHT22;5769;47.998;7.788;2023-10-31T00:53:15;21.10;66.60
11426;DHT22;5769;47.998;7.788;2023-10-31T00:55:44;21.10;66.60
11426;DHT22;5769;47.998;7.788;2023-10-31T00:58:11;21.10;66.50
11426;DHT22;5769;47.998;7.788;2023-10-31T01:00:37;21.10;66.60
11426;DHT22;5769;47.998;7.788;2023-10-31T01:03:04;21.10;66.50
11426;DHT22;5769;47.998;7.788;2023-10-31T01:05:31;21.10;66.50
11426;DHT22;5769;47.998;7.788;2023-10-31T01:07:57;21.10;66.50
11426;DHT22;5769;47.998;7.788;2023-10-31T01:10:24;21.10;66.50
11426;DHT22;5769;47.998;7.788;2023-10-31T01:12:52;21.10;67.30
11426;DHT22;5769;47.998;7.788;2023-10-31T01:15:19;21.00;66.50
11426;DHT22;5769;47.998;7.788;2023-10-31T01:17:46;21.10;66.50
11426;DHT22;5769;47.998;7.788;2023-10-31T01:20:12;21.10;66.50
11426;DHT22;5769;47.998;7.788;2023-10-31T01:22:39;21.10;66.50
11426;DHT22;5769;47.998;7.788;2023-10-31T01:25:06;21.00;66.50
11426;DHT22;5769;47.998;7.788;2023-10-31T01:27:33;21.00;66.50
11426;DHT22;5769;47.998;7.788;2023-10-31T01:30:01;21.00;66.50
11426;DHT22;5769;47.998;7.788;2023-10-31T01:32:27;21.00;66.50
11426;DHT22;5769;47.998;7.788;2023-10-31T01:34:54;21.00;66.50
11426;DHT22;5769;47.998;7.788;2023-10-31T01:37:21;21.00;66.40
11426;DHT22;5769;47.998;7.788;2023-10-31T01:39:47;21.00;66.50
11426;DHT22;5769;47.998;7.788;2023-10-31T01:42:15;21.00;66.50
11426;DHT22;5769;47.998;7.788;2023-10-31T01:44:42;21.00;66.50
11426;DHT22;5769;47.998;7.788;2023-10-31T01:47:10;21.00;66.50
11426;DHT22;5769;47.998;7.788;2023-10-31T01:49:37;21.00;66.50
11426;DHT22;5769;47.998;7.788;2023-10-31T01:52:04;21.00;66.50
11426;DHT22;5769;47.998;7.788;2023-10-31T01:54:32;21.00;66.50
11426;DHT22;5769;47.998;7.788;2023-10-31T01:57:00;21.00;66.40
11426;DHT22;5769;47.998;7.788;2023-10-31T01:59:27;21.00;66.50
11426;DHT22;5769;47.998;7.788;2023-10-31T02:01:54;21.00;66.40
11426;DHT22;5769;47.998;7.788;2023-10-31T02:04:23;21.00;66.40
11426;DHT22;5769;47.998;7.788;2023-10-31T02:06:50;21.00;66.50
11426;DHT22;5769;47.998;7.788;2023-10-31T02:09:17;21.00;66.40
11426;DHT22;5769;47.998;7.788;2023-10-31T02:11:43;21.00;66.50
11426;DHT22;5769;47.998;7.788;2023-10-31T02:14:10;21.00;66.40
11426;DHT22;5769;47.998;7.788;2023-10-31T02:16:37;21.00;66.40
11426;DHT22;5769;47.998;7.788;2023-10-31T02:19:03;21.00;66.40
11426;DHT22;5769;47.998;7.788;2023-10-31T02:21:32;21.00;66.40
11426;DHT22;5769;47.998;7.788;2023-10-31T02:24:01;21.00;66.40
11426;DHT22;5769;47.998;7.788;2023-10-31T02:26:29;21.00;66.40
11426;DHT22;5769;47.998;7.788;2023-10-31T02:28:55;21.00;66.40
11426;DHT22;5769;47.998;7.788;2023-10-31T02:31:22;21.00;66.40
11426;DHT22;5769;47.998;7.788;2023-10-31T02:33:49;21.00;66.40
11426;DHT22;5769;47.998;7.788;2023-10-31T02:36:15;21.00;66.40
11426;DHT22;5769;47.998;7.788;2023-10-31T02:38:42;21.00;66.40
11426;DHT22;5769;47.998;7.788;2023-10-31T02:41:10;21.00;66.40
11426;DHT22;5769;47.998;7.788;2023-10-31T02:43:37;21.00;66.40
11426;DHT22;5769;47.998;7.788;2023-10-31T02:46:04;21.00;66.30
11426;DHT22;5769;47.998;7.788;2023-10-31T02:48:31;21.00;66.30
11426;DHT22;5769;47.998;7.788;2023-10-31T02:51:03;21.00;66.30
11426;DHT22;5769;47.998;7.788;2023-10-31T02:53:30;21.00;66.30
11426;DHT22;5769;47.998;7.788;2023-10-31T02:55:57;21.00;66.30
11426;DHT22;5769;47.998;7.788;2023-10-31T02:58:25;21.00;66.30
11426;DHT22;5769;47.998;7.788;2023-10-31T03:00:51;21.00;66.30
11426;DHT22;5769;47.998;7.788;2023-10-31T03:03:18;21.00;66.30
11426;DHT22;5769;47.998;7.788;2023-10-31T03:05:45;21.00;66.30
11426;DHT22;5769;47.998;7.788;2023-10-31T03:08:11;21.00;66.30
11426;DHT22;5769;47.998;7.788;2023-10-31T03:10:38;21.00;66.30
11426;DHT22;5769;47.998;7.788;2023-10-31T03:13:05;21.00;66.30
11426;DHT22;5769;47.998;7.788;2023-10-31T03:15:33;21.00;66.30
11426;DHT22;5769;47.998;7.788;2023-10-31T03:18:00;21.00;66.30
11426;DHT22;5769;47.998;7.788;2023-10-31T03:20:28;21.00;66.30
11426;DHT22;5769;47.998;7.788;2023-10-31T03:22:54;21.00;66.30
11426;DHT22;5769;47.998;7.788;2023-10-31T03:25:21;21.00;66.30
11426;DHT22;5769;47.998;7.788;2023-10-31T03:27:47;21.00;67.00
11426;DHT22;5769;47.998;7.788;2023-10-31T03:30:14;21.00;66.30
11426;DHT22;5769;47.998;7.788;2023-10-31T03:32:42;21.00;66.30
11426;DHT22;5769;47.998;7.788;2023-10-31T03:35:09;21.00;66.30
11426;DHT22;5769;47.998;7.788;2023-10-31T03:37:35;21.00;66.20
11426;DHT22;5769;47.998;7.788;2023-10-31T03:40:07;21.00;66.20
11426;DHT22;5769;47.998;7.788;2023-10-31T03:42:34;21.00;66.20
11426;DHT22;5769;47.998;7.788;2023-10-31T03:45:01;21.00;66.20
11426;DHT22;5769;47.998;7.788;2023-10-31T03:47:28;21.00;66.20
11426;DHT22;5769;47.998;7.788;2023-10-31T03:49:56;21.00;66.20
11426;DHT22;5769;47.998;7.788;2023-10-31T03:52:22;21.00;66.20
11426;DHT22;5769;47.998;7.788;2023-10-31T03:54:49;21.00;66.20
11426;DHT22;5769;47.998;7.788;2023-10-31T03:57:16;21.00;66.20
11426;DHT22;5769;47.998;7.788;2023-10-31T03:59:42;21.00;66.20
11426;DHT22;5769;47.998;7.788;2023-10-31T04:02:09;21.00;66.20
11426;DHT22;5769;47.998;7.788;2023-10-31T04:04:35;21.00;66.20
11426;DHT22;5769;47.998;7.788;2023-10-31T04:07:04;21.00;66.20
11426;DHT22;5769;47.998;7.788;2023-10-31T04:09:30;21.00;66.20
11426;DHT22;5769;47.998;7.788;2023-10-31T04:11:57;21.00;66.20
11426;DHT22;5769;47.998;7.788;2023-10-31T04:14:24;21.00;66.10
11426;DHT22;5769;47.998;7.788;2023-10-31T04:16:50;21.00;66.20
11426;DHT22;5769;47.998;7.788;2023-10-31T04:19:17;21.00;66.20
11426;DHT22;5769;47.998;7.788;2023-10-31T04:21:44;21.00;66.20
11426;DHT22;5769;47.998;7.788;2023-10-31T04:24:12;21.00;66.10
11426;DHT22;5769;47.998;7.788;2023-10-31T04:26:39;21.00;66.10
11426;DHT22;5769;47.998;7.788;2023-10-31T04:29:06;21.00;66.10
11426;DHT22;5769;47.998;7.788;2023-10-31T04:31:33;21.00;66.10
11426;DHT22;5769;47.998;7.788;2023-10-31T04:33:59;21.00;66.10
11426;DHT22;5769;47.998;7.788;2023-10-31T04:36:26;21.00;66.10
11426;DHT22;5769;47.998;7.788;2023-10-31T04:38:53;21.00;66.10
11426;DHT22;5769;47.998;7.788;2023-10-31T04:41:21;21.00;66.10
11426;DHT22;5769;47.998;7.788;2023-10-31T04:43:48;21.00;66.10
11426;DHT22;5769;47.998;7.788;2023-10-31T04:46:15;21.00;66.10
11426;DHT22;5769;47.998;7.788;2023-10-31T04:48:42;21.00;66.00
11426;DHT22;5769;47.998;7.788;2023-10-31T04:51:08;21.00;66.00
11426;DHT22;5769;47.998;7.788;2023-10-31T04:53:35;21.00;66.00
11426;DHT22;5769;47.998;7.788;2023-10-31T04:56:02;21.00;66.00
11426;DHT22;5769;47.998;7.788;2023-10-31T04:58:30;21.00;66.00
11426;DHT22;5769;47.998;7.788;2023-10-31T05:00:57;21.00;66.00
11426;DHT22;5769;47.998;7.788;2023-10-31T05:03:23;21.00;66.00
11426;DHT22;5769;47.998;7.788;2023-10-31T05:05:50;21.00;66.00
11426;DHT22;5769;47.998;7.788;2023-10-31T05:08:17;21.00;66.00
11426;DHT22;5769;47.998;7.788;2023-10-31T05:10:44;21.00;66.70
11426;DHT22;5769;47.998;7.788;2023-10-31T05:13:12;21.00;66.00
11426;DHT22;5769;47.998;7.788;2023-10-31T05:15:41;21.00;66.00
11426;DHT22;5769;47.998;7.788;2023-10-31T05:18:07;21.00;66.00
11426;DHT22;5769;47.998;7.788;2023-10-31T05:20:34;21.00;66.70
11426;DHT22;5769;47.998;7.788;2023-10-31T05:23:01;21.00;66.00
11426;DHT22;5769;47.998;7.788;2023-10-31T05:25:27;21.00;66.00
11426;DHT22;5769;47.998;7.788;2023-10-31T05:27:54;21.00;66.00
11426;DHT22;5769;47.998;7.788;2023-10-31T05:30:21;21.00;66.00
11426;DHT22;5769;47.998;7.788;2023-10-31T05:32:49;21.00;65.90
11426;DHT22;5769;47.998;7.788;2023-10-31T05:35:16;21.00;65.90
11426;DHT22;5769;47.998;7.788;2023-10-31T05:37:43;21.00;65.90
11426;DHT22;5769;47.998;7.788;2023-10-31T05:40:10;21.00;65.90
11426;DHT22;5769;47.998;7.788;2023-10-31T05:42:37;21.00;65.90
11426;DHT22;5769;47.998;7.788;2023-10-31T05:45:05;21.00;65.90
11426;DHT22;5769;47.998;7.788;2023-10-31T05:47:31;21.00;65.90
11426;DHT22;5769;47.998;7.788;2023-10-31T05:50:00;21.00;66.00
11426;DHT22;5769;47.998;7.788;2023-10-31T05:52:28;21.00;65.90
11426;DHT22;5769;47.998;7.788;2023-10-31T05:54:54;21.00;65.90
11426;DHT22;5769;47.998;7.788;2023-10-31T05:57:21;20.90;65.80
11426;DHT22;5769;47.998;7.788;2023-10-31T05:59:48;21.00;65.90
11426;DHT22;5769;47.998;7.788;2023-10-31T06:02:15;21.00;66.00
11426;DHT22;5769;47.998;7.788;2023-10-31T06:04:41;21.00;65.90
11426;DHT22;5769;47.998;7.788;2023-10-31T06:07:10;21.00;65.90
11426;DHT22;5769;47.998;7.788;2023-10-31T06:09:37;21.00;65.90
11426;DHT22;5769;47.998;7.788;2023-10-31T06:12:04;21.00;65.90
11426;DHT22;5769;47.998;7.788;2023-10-31T06:14:31;20.90;65.80
11426;DHT22;5769;47.998;7.788;2023-10-31T06:16:58;21.00;65.90
11426;DHT22;5769;47.998;7.788;2023-10-31T06:19:26;21.00;65.90
11426;DHT22;5769;47.998;7.788;2023-10-31T06:21:53;21.00;65.90
11426;DHT22;5769;47.998;7.788;2023-10-31T06:24:21;21.00;65.80
11426;DHT22;5769;47.998;7.788;2023-10-31T06:26:48;21.00;65.80
11426;DHT22;5769;47.998;7.788;2023-10-31T06:29:14;21.00;65.90
11426;DHT22;5769;47.998;7.788;2023-10-31T06:31:41;21.00;65.80
11426;DHT22;5769;47.998;7.788;2023-10-31T06:34:07;21.00;65.80
11426;DHT22;5769;47.998;7.788;2023-10-31T06:36:34;21.00;65.80
11426;DHT22;5769;47.998;7.788;2023-10-31T06:39:01;21.00;66.20
11426;DHT22;5769;47.998;7.788;2023-10-31T06:41:29;21.00;65.80
11426;DHT22;5769;47.998;7.788;2023-10-31T06:43:55;21.00;65.80
11426;DHT22;5769;47.998;7.788;2023-10-31T06:46:22;21.00;65.80
11426;DHT22;5769;47.998;7.788;2023-10-31T06:48:49;21.00;65.80
11426;DHT22;5769;47.998;7.788;2023-10-31T06:51:15;21.00;65.80
11426;DHT22;5769;47.998;7.788;2023-10-31T06:53:42;21.00;65.80
11426;DHT22;5769;47.998;7.788;2023-10-31T06:56:09;20.90;65.70
11426;DHT22;5769;47.998;7.788;2023-10-31T06:58:37;21.00;65.80
11426;DHT22;5769;47.998;7.788;2023-10-31T07:01:04;21.00;65.80
11426;DHT22;5769;47.998;7.788;2023-10-31T07:03:30;20.90;65.70
11426;DHT22;5769;47.998;7.788;2023-10-31T07:05:58;21.00;65.80
11426;DHT22;5769;47.998;7.788;2023-10-31T07:08:24;21.00;65.70
11426;DHT22;5769;47.998;7.788;2023-10-31T07:10:51;21.00;65.80
11426;DHT22;5769;47.998;7.788;2023-10-31T07:13:18;21.00;65.80
11426;DHT22;5769;47.998;7.788;2023-10-31T07:15:46;20.90;65.70
11426;DHT22;5769;47.998;7.788;2023-10-31T07:18:13;21.00;65.70
11426;DHT22;5769;47.998;7.788;2023-10-31T07:20:40;21.00;65.70
11426;DHT22;5769;47.998;7.788;2023-10-31T07:23:07;21.00;65.70
11426;DHT22;5769;47.998;7.788;2023-10-31T07:25:34;21.00;65.60
11426;DHT22;5769;47.998;7.788;2023-10-31T07:28:01;21.00;65.60
11426;DHT22;5769;47.998;7.788;2023-10-31T07:30:27;21.00;65.70
11426;DHT22;5769;47.998;7.788;2023-10-31T07:32:56;20.90;65.60
11426;DHT22;5769;47.998;7.788;2023-10-31T07:35:23;20.90;65.60
11426;DHT22;5769;47.998;7.788;2023-10-31T07:37:50;20.90;65.60
11426;DHT22;5769;47.998;7.788;2023-10-31T07:40:17;21.00;65.70
11426;DHT22;5769;47.998;7.788;2023-10-31T07:42:43;21.00;65.70
11426;DHT22;5769;47.998;7.788;2023-10-31T07:45:10;21.00;65.70
11426;DHT22;5769;47.998;7.788;2023-10-31T07:47:37;21.00;65.70
11426;DHT22;5769;47.998;7.788;2023-10-31T07:50:06;20.90;65.60
11426;DHT22;5769;47.998;7.788;2023-10-31T07:52:33;21.00;65.70
11426;DHT22;5769;47.998;7.788;2023-10-31T07:54:59;21.00;65.60
11426;DHT22;5769;47.998;7.788;2023-10-31T07:57:26;20.90;65.30
11426;DHT22;5769;47.998;7.788;2023-10-31T07:59:53;21.00;65.20
11426;DHT22;5769;47.998;7.788;2023-10-31T08:02:19;21.00;65.00
11426;DHT22;5769;47.998;7.788;2023-10-31T08:04:46;21.00;64.80
11426;DHT22;5769;47.998;7.788;2023-10-31T08:07:14;20.90;64.40
11426;DHT22;5769;47.998;7.788;2023-10-31T08:09:41;20.90;64.10
11426;DHT22;5769;47.998;7.788;2023-10-31T08:12:07;20.90;63.70
11426;DHT22;5769;47.998;7.788;2023-10-31T08:14:35;20.90;63.60
11426;DHT22;5769;47.998;7.788;2023-10-31T08:17:02;20.90;63.40
11426;DHT22;5769;47.998;7.788;2023-10-31T08:19:29;20.90;63.40
11426;DHT22;5769;47.998;7.788;2023-10-31T08:21:55;20.90;63.20
11426;DHT22;5769;47.998;7.788;2023-10-31T08:24:23;20.90;63.10
11426;DHT22;5769;47.998;7.788;2023-10-31T08:26:50;20.90;63.20
11426;DHT22;5769;47.998;7.788;2023-10-31T08:29:17;20.90;63.00
11426;DHT22;5769;47.998;7.788;2023-10-31T08:31:43;20.90;63.10
11426;DHT22;5769;47.998;7.788;2023-10-31T08:34:10;20.90;63.10
11426;DHT22;5769;47.998;7.788;2023-10-31T08:36:37;20.80;63.00
11426;DHT22;5769;47.998;7.788;2023-10-31T08:39:04;20.90;63.10
11426;DHT22;5769;47.998;7.788;2023-10-31T08:41:32;20.90;63.10
11426;DHT22;5769;47.998;7.788;2023-10-31T08:43:59;20.90;63.00
11426;DHT22;5769;47.998;7.788;2023-10-31T08:46:29;20.90;62.90
11426;DHT22;5769;47.998;7.788;2023-10-31T08:48:55;20.80;62.80
11426;DHT22;5769;47.998;7.788;2023-10-31T08:51:22;20.90;62.90
11426;DHT22;5769;47.998;7.788;2023-10-31T08:53:49;20.90;62.80
11426;DHT22;5769;47.998;7.788;2023-10-31T08:56:15;20.90;62.70
11426;DHT22;5769;47.998;7.788;2023-10-31T08:58:43;20.90;62.80
11426;DHT22;5769;47.998;7.788;2023-10-31T09:01:10;20.90;62.70
11426;DHT22;5769;47.998;7.788;2023-10-31T09:03:37;20.80;62.60
11426;DHT22;5769;47.998;7.788;2023-10-31T09:06:03;20.90;62.60
11426;DHT22;5769;47.998;7.788;2023-10-31T09:08:31;20.90;62.60
11426;DHT22;5769;47.998;7.788;2023-10-31T09:10:59;20.90;62.60
11426;DHT22;5769;47.998;7.788;2023-10-31T09:13:26;20.90;62.40
11426;DHT22;5769;47.998;7.788;2023-10-31T09:15:54;20.90;62.50
11426;DHT22;5769;47.998;7.788;2023-10-31T09:18:20;20.80;62.40
11426;DHT22;5769;47.998;7.788;2023-10-31T09:20:47;20.90;62.40
11426;DHT22;5769;47.998;7.788;2023-10-31T09:23:13;20.90;62.40
11426;DHT22;5769;47.998;7.788;2023-10-31T09:25:40;20.90;62.40
11426;DHT22;5769;47.998;7.788;2023-10-31T09:28:07;20.90;62.30
11426;DHT22;5769;47.998;7.788;2023-10-31T09:30:34;20.90;62.20
11426;DHT22;5769;47.998;7.788;2023-10-31T09:33:02;20.90;62.20
11426;DHT22;5769;47.998;7.788;2023-10-31T09:35:28;20.80;62.20
11426;DHT22;5769;47.998;7.788;2023-10-31T09:37:56;20.90;62.20
11426;DHT22;5769;47.998;7.788;2023-10-31T09:40:23;20.90;62.10
11426;DHT22;5769;47.998;7.788;2023-10-31T09:42:50;20.80;62.10
11426;DHT22;5769;47.998;7.788;2023-10-31T09:45:17;20.80;62.00
11426;DHT22;5769;47.998;7.788;2023-10-31T09:47:43;20.90;62.10
11426;DHT22;5769;47.998;7.788;2023-10-31T09:50:11;20.80;62.20
11426;DHT22;5769;47.998;7.788;2023-10-31T09:52:39;20.80;61.90
11426;DHT22;5769;47.998;7.788;2023-10-31T09:55:06;20.80;61.90
11426;DHT22;5769;47.998;7.788;2023-10-31T09:57:33;20.90;62.00
11426;DHT22;5769;47.998;7.788;2023-10-31T10:00:00;20.80;61.90
11426;DHT22;5769;47.998;7.788;2023-10-31T10:02:26;20.90;61.90
11426;DHT22;5769;47.998;7.788;2023-10-31T10:04:53;20.80;61.90
11426;DHT22;5769;47.998;7.788;2023-10-31T10:07:21;20.80;61.80
11426;DHT22;5769;47.998;7.788;2023-10-31T10:09:48;20.80;61.90
11426;DHT22;5769;47.998;7.788;2023-10-31T10:12:16;20.80;62.00
11426;DHT22;5769;47.998;7.788;2023-10-31T10:14:44;20.80;62.10
11426;DHT22;5769;47.998;7.788;2023-10-31T10:17:15;20.80;62.10
11426;DHT22;5769;47.998;7.788;2023-10-31T10:19:42;20.80;62.20
11426;DHT22;5769;47.998;7.788;2023-10-31T10:22:09;20.80;62.20
11426;DHT22;5769;47.998;7.788;2023-10-31T10:24:41;20.90;62.30
11426;DHT22;5769;47.998;7.788;2023-10-31T10:27:08;20.90;62.30
11426;DHT22;5769;47.998;7.788;2023-10-31T10:29:35;20.80;62.30
11426;DHT22;5769;47.998;7.788;2023-10-31T10:32:05;20.90;62.40
11426;DHT22;5769;47.998;7.788;2023-10-31T10:34:33;20.80;62.30
11426;DHT22;5769;47.998;7.788;2023-10-31T10:37:01;20.80;62.40
11426;DHT22;5769;47.998;7.788;2023-10-31T10:39:32;20.90;62.50
11426;DHT22;5769;47.998;7.788;2023-10-31T10:42:01;20.90;62.50
11426;DHT22;5769;47.998;7.788;2023-10-31T10:44:34;20.90;62.50
11426;DHT22;5769;47.998;7.788;2023-10-31T10:47:03;20.90;62.50
11426;DHT22;5769;47.998;7.788;2023-10-31T10:49:33;20.90;62.50
11426;DHT22;5769;47.998;7.788;2023-10-31T10:52:08;20.90;62.50
11426;DHT22;5769;47.998;7.788;2023-10-31T10:54:42;20.90;62.60
11426;DHT22;5769;47.998;7.788;2023-10-31T10:57:14;20.90;62.50
11426;DHT22;5769;47.998;7.788;2023-10-31T10:59:43;20.90;62.60
11426;DHT22;5769;47.998;7.788;2023-10-31T11:02:11;20.90;62.60
11426;DHT22;5769;47.998;7.788;2023-10-31T11:04:42;20.90;62.60
11426;DHT22;5769;47.998;7.788;2023-10-31T11:07:09;20.90;62.60
11426;DHT22;5769;47.998;7.788;2023-10-31T11:09:35;20.90;62.60
11426;DHT22;5769;47.998;7.788;2023-10-31T11:12:04;20.80;62.60
11426;DHT22;5769;47.998;7.788;2023-10-31T11:14:32;20.90;62.60
11426;DHT22;5769;47.998;7.788;2023-10-31T11:17:02;20.90;62.60
11426;DHT22;5769;47.998;7.788;2023-10-31T11:19:32;20.90;62.70
11426;DHT22;5769;47.998;7.788;2023-10-31T11:22:00;20.90;62.70
11426;DHT22;5769;47.998;7.788;2023-10-31T11:24:28;20.90;62.70
11426;DHT22;5769;47.998;7.788;2023-10-31T11:26:59;20.90;62.70
11426;DHT22;5769;47.998;7.788;2023-10-31T11:29:26;20.90;62.70
11426;DHT22;5769;47.998;7.788;2023-10-31T11:31:55;20.90;62.70
11426;DHT22;5769;47.998;7.788;2023-10-31T11:34:22;20.90;62.70
11426;DHT22;5769;47.998;7.788;2023-10-31T11:36:51;20.90;62.80
11426;DHT22;5769;47.998;7.788;2023-10-31T11:39:19;20.90;62.80
11426;DHT22;5769;47.998;7.788;2023-10-31T11:41:49;20.90;63.60
11426;DHT22;5769;47.998;7.788;2023-10-31T11:44:16;20.90;62.80
11426;DHT22;5769;47.998;7.788;2023-10-31T11:46:43;20.90;62.90
11426;DHT22;5769;47.998;7.788;2023-10-31T11:49:15;20.90;62.90
11426;DHT22;5769;47.998;7.788;2023-10-31T11:51:44;20.90;62.90
11426;DHT22;5769;47.998;7.788;2023-10-31T11:54:13;20.90;63.00
11426;DHT22;5769;47.998;7.788;2023-10-31T11:56:39;20.90;63.20
11426;DHT22;5769;47.998;7.788;2023-10-31T11:59:06;20.90;63.40
11426;DHT22;5769;47.998;7.788;2023-10-31T12:01:33;20.90;63.50
11426;DHT22;5769;47.998;7.788;2023-10-31T12:04:00;20.90;63.50
11426;DHT22;5769;47.998;7.788;2023-10-31T12:06:30;21.00;63.70
11426;DHT22;5769;47.998;7.788;2023-10-31T12:08:59;21.00;63.70
11426;DHT22;5769;47.998;7.788;2023-10-31T12:11:27;20.90;63.60
11426;DHT22;5769;47.998;7.788;2023-10-31T12:13:55;20.90;63.60
11426;DHT22;5769;47.998;7.788;2023-10-31T12:16:26;21.00;63.80
11426;DHT22;5769;47.998;7.788;2023-10-31T12:18:57;21.00;63.80
11426;DHT22;5769;47.998;7.788;2023-10-31T12:21:39;21.00;63.80
11426;DHT22;5769;47.998;7.788;2023-10-31T12:24:08;21.00;63.90
11426;DHT22;5769;47.998;7.788;2023-10-31T12:26:35;21.00;63.90
11426;DHT22;5769;47.998;7.788;2023-10-31T12:29:09;21.00;63.90
11426;DHT22;5769;47.998;7.788;2023-10-31T12:31:39;21.00;64.00
11426;DHT22;5769;47.998;7.788;2023-10-31T12:34:07;21.10;64.10
11426;DHT22;5769;47.998;7.788;2023-10-31T12:36:35;21.00;64.10
11426;DHT22;5769;47.998;7.788;2023-10-31T12:39:04;21.10;64.20
11426;DHT22;5769;47.998;7.788;2023-10-31T12:41:32;21.10;64.30
11426;DHT22;5769;47.998;7.788;2023-10-31T12:44:00;21.10;64.20
11426;DHT22;5769;47.998;7.788;2023-10-31T12:46:28;21.10;64.20
11426;DHT22;5769;47.998;7.788;2023-10-31T12:48:55;21.10;64.20
11426;DHT22;5769;47.998;7.788;2023-10-31T12:51:22;21.10;64.20
11426;DHT22;5769;47.998;7.788;2023-10-31T12:53:49;21.10;64.30
11426;DHT22;5769;47.998;7.788;2023-10-31T12:56:38;21.10;64.30
11426;DHT22;5769;47.998;7.788;2023-10-31T12:59:06;21.10;64.30
11426;DHT22;5769;47.998;7.788;2023-10-31T13:01:34;21.10;64.30
11426;DHT22;5769;47.998;7.788;2023-10-31T13:04:01;21.10;64.30
11426;DHT22;5769;47.998;7.788;2023-10-31T13:06:28;21.10;64.30
11426;DHT22;5769;47.998;7.788;2023-10-31T13:08:55;21.10;64.30
11426;DHT22;5769;47.998;7.788;2023-10-31T13:11:22;21.10;64.30
11426;DHT22;5769;47.998;7.788;2023-10-31T13:13:53;21.10;64.30
11426;DHT22;5769;47.998;7.788;2023-10-31T13:16:19;21.10;64.30
11426;DHT22;5769;47.998;7.788;2023-10-31T13:18:46;21.20;64.40
11426;DHT22;5769;47.998;7.788;2023-10-31T13:21:13;21.20;64.50
11426;DHT22;5769;47.998;7.788;2023-10-31T13:23:41;21.10;64.30
11426;DHT22;5769;47.998;7.788;2023-10-31T13:26:10;21.10;64.20
11426;DHT22;5769;47.998;7.788;2023-10-31T13:28:37;21.10;64.10
11426;DHT22;5769;47.998;7.788;2023-10-31T13:31:06;21.10;64.00
11426;DHT22;5769;47.998;7.788;2023-10-31T13:33:33;21.10;64.00
11426;DHT22;5769;47.998;7.788;2023-10-31T13:36:00;21.10;64.00
11426;DHT22;5769;47.998;7.788;2023-10-31T13:38:27;21.10;63.90
11426;DHT22;5769;47.998;7.788;2023-10-31T13:40:53;21.10;64.00
11426;DHT22;5769;47.998;7.788;2023-10-31T13:43:20;21.00;63.90
11426;DHT22;5769;47.998;7.788;2023-10-31T13:45:47;21.10;64.00
11426;DHT22;5769;47.998;7.788;2023-10-31T13:48:15;21.10;64.00
11426;DHT22;5769;47.998;7.788;2023-10-31T13:50:42;21.10;64.00
11426;DHT22;5769;47.998;7.788;2023-10-31T13:53:09;21.10;64.00
11426;DHT22;5769;47.998;7.788;2023-10-31T13:55:35;21.00;63.90
11426;DHT22;5769;47.998;7.788;2023-10-31T13:58:02;21.10;64.00
11426;DHT22;5769;47.998;7.788;2023-10-31T14:00:29;21.10;64.00
11426;DHT22;5769;47.998;7.788;2023-10-31T14:02:56;21.00;63.90
11426;DHT22;5769;47.998;7.788;2023-10-31T14:05:24;21.00;63.90
11426;DHT22;5769;47.998;7.788;2023-10-31T14:07:50;21.00;63.90
11426;DHT22;5769;47.998;7.788;2023-10-31T14:10:17;21.00;63.90
11426;DHT22;5769;47.998;7.788;2023-10-31T14:12:45;21.00;63.90
11426;DHT22;5769;47.998;7.788;2023-10-31T14:15:12;21.00;63.90
11426;DHT22;5769;47.998;7.788;2023-10-31T14:17:38;21.00;64.00
11426;DHT22;5769;47.998;7.788;2023-10-31T14:20:06;21.00;63.90
11426;DHT22;5769;47.998;7.788;2023-10-31T14:22:35;21.00;63.90
11426;DHT22;5769;47.998;7.788;2023-10-31T14:25:01;21.00;63.80
11426;DHT22;5769;47.998;7.788;2023-10-31T14:27:30;21.00;63.90
11426;DHT22;5769;47.998;7.788;2023-10-31T14:29:57;21.00;63.90
11426;DHT22;5769;47.998;7.788;2023-10-31T14:32:24;21.00;63.90
11426;DHT22;5769;47.998;7.788;2023-10-31T14:34:50;21.00;63.80
11426;DHT22;5769;47.998;7.788;2023-10-31T14:37:17;21.00;63.90
11426;DHT22;5769;47.998;7.788;2023-10-31T14:39:45;21.00;64.00
11426;DHT22;5769;47.998;7.788;2023-10-31T14:42:12;21.10;64.00
11426;DHT22;5769;47.998;7.788;2023-10-31T14:44:38;21.10;64.10
11426;DHT22;5769;47.998;7.788;2023-10-31T14:47:05;21.10;64.10
11426;DHT22;5769;47.998;7.788;2023-10-31T14:49:32;21.10;64.10
11426;DHT22;5769;47.998;7.788;2023-10-31T14:51:59;21.10;64.20
11426;DHT22;5769;47.998;7.788;2023-10-31T14:54:26;21.10;64.20
11426;DHT22;5769;47.998;7.788;2023-10-31T14:56:54;21.10;64.30
11426;DHT22;5769;47.998;7.788;2023-10-31T14:59:21;21.10;64.30
11426;DHT22;5769;47.998;7.788;2023-10-31T15:01:48;21.10;64.30
11426;DHT22;5769;47.998;7.788;2023-10-31T15:04:14;21.10;64.40
11426;DHT22;5769;47.998;7.788;2023-10-31T15:06:42;21.10;64.40
11426;DHT22;5769;47.998;7.788;2023-10-31T15:09:09;21.10;64.50
11426;DHT22;5769;47.998;7.788;2023-10-31T15:11:37;21.10;64.50
11426;DHT22;5769;47.998;7.788;2023-10-31T15:14:05;21.10;64.50
11426;DHT22;5769;47.998;7.788;2023-10-31T15:16:31;21.20;64.70
11426;DHT22;5769;47.998;7.788;2023-10-31T15:18:58;21.20;64.70
11426;DHT22;5769;47.998;7.788;2023-10-31T15:21:25;21.20;64.70
11426;DHT22;5769;47.998;7.788;2023-10-31T15:23:52;21.20;64.70
11426;DHT22;5769;47.998;7.788;2023-10-31T15:26:19;21.20;64.80
11426;DHT22;5769;47.998;7.788;2023-10-31T15:28:50;21.20;64.80
11426;DHT22;5769;47.998;7.788;2023-10-31T15:31:18;21.20;64.80
11426;DHT22;5769;47.998;7.788;2023-10-31T15:33:45;21.20;64.50
11426;DHT22;5769;47.998;7.788;2023-10-31T15:36:12;21.20;64.00
11426;DHT22;5769;47.998;7.788;2023-10-31T15:38:39;21.10;63.90
11426;DHT22;5769;47.998;7.788;2023-10-31T15:41:06;21.10;63.70
11426;DHT22;5769;47.998;7.788;2023-10-31T15:43:33;21.10;63.60
11426;DHT22;5769;47.998;7.788;2023-10-31T15:46:00;21.10;63.50